Time;durP1;ratioP1;P1;durP2;ratioP2;P2;SDS_P1;SDS_P2;PMS_P1;PMS_P2;Temp;Humidity;BMP_temperature;BMP_pressure;BME280_temperature;BME280_humidity;BME280_pressure;Samples;Min_cycle;Max_cycle;Signal;HPM_P1;HPM_P2
2022/11/27 00:02:14;;;;;;;;;;;;;;;21.06;25.46;98846.13;5056194;28;934;-74
2022/11/27 00:04:40;;;;;;;;;;;;;;;20.52;26.31;98843.00;5056438;28;952;-75
2022/11/27 00:07:05;;;;;;;;;;;;;;;20.28;26.48;98848.44;5038504;28;1030;-75
2022/11/27 00:09:32;;;;;;;;;;;;;;;20.62;26.02;98846.97;5056458;28;922;-74
2022/11/27 00:11:57;;;;;;;;;;;;;;;20.77;25.77;98857.72;5038816;28;959;-75
2022/11/27 00:14:23;;;;;;;;;;;;;;;21.04;25.27;98859.91;5038691;28;1914;-75
2022/11/27 00:16:48;;;;;;;;;;;;;;;21.06;25.60;98868.75;5056271;28;922;-75
2022/11/27 00:19:14;;;;;;;;;;;;;;;21.11;25.39;98865.47;5056400;28;966;-75
2022/11/27 00:21:39;;;;;;;;;;;;;;;20.83;25.97;98877.88;5056087;28;929;-75
2022/11/27 00:24:05;;;;;;;;;;;;;;;20.76;26.02;98866.63;5038425;28;971;-75
2022/11/27 00:26:30;;;;;;;;;;;;;;;20.68;26.15;98865.91;5038329;28;919;-75
2022/11/27 00:28:56;;;;;;;;;;;;;;;20.85;25.81;98878.25;5056144;28;888;-75
2022/11/27 00:31:25;;;;;;;;;;;;;;;21.08;25.27;98880.44;5055992;28;972;-75
2022/11/27 00:33:52;;;;;;;;;;;;;;;20.67;25.88;98878.41;5055854;28;1958;-75
2022/11/27 00:36:18;;;;;;;;;;;;;;;20.58;26.29;98883.75;5055761;28;1036;-75
2022/11/27 00:38:44;;;;;;;;;;;;;;;20.57;26.28;98884.97;5056111;28;857;-74
2022/11/27 00:41:10;;;;;;;;;;;;;;;20.86;25.79;98887.56;5055987;28;946;-75
2022/11/27 00:43:35;;;;;;;;;;;;;;;20.69;26.22;98887.31;5004037;28;1003;-75
2022/11/27 00:46:01;;;;;;;;;;;;;;;21.05;25.81;98884.94;5055843;28;1051;-75
2022/11/27 00:48:26;;;;;;;;;;;;;;;20.59;26.17;98884.56;5055554;28;904;-75
2022/11/27 00:50:56;;;;;;;;;;;;;;;20.41;26.36;98884.66;5055713;28;1054;-74
2022/11/27 00:53:22;;;;;;;;;;;;;;;20.45;26.44;98885.44;5055615;28;1914;-75
2022/11/27 00:55:47;;;;;;;;;;;;;;;20.81;25.82;98885.97;5055571;28;1090;-75
2022/11/27 00:58:13;;;;;;;;;;;;;;;20.99;25.73;98891.47;5055589;28;994;-75
2022/11/27 01:00:38;;;;;;;;;;;;;;;20.90;25.70;98891.16;5062058;28;961;-75
2022/11/27 01:03:04;;;;;;;;;;;;;;;20.53;26.57;98895.53;5061994;28;858;-75
2022/11/27 01:05:29;;;;;;;;;;;;;;;20.51;26.55;98892.28;5062432;28;920;-75
2022/11/27 01:07:54;;;;;;;;;;;;;;;20.47;26.46;98885.88;5062730;28;1061;-75
2022/11/27 01:10:20;;;;;;;;;;;;;;;20.93;25.78;98881.81;5062311;28;956;-75
2022/11/27 01:12:47;;;;;;;;;;;;;;;21.14;25.35;98884.44;5061851;28;1898;-75
2022/11/27 01:15:12;;;;;;;;;;;;;;;21.00;25.83;98888.22;5062281;28;1062;-75
2022/11/27 01:17:38;;;;;;;;;;;;;;;20.69;26.01;98881.66;5062138;28;891;-75
2022/11/27 01:20:04;;;;;;;;;;;;;;;20.55;26.39;98873.28;5062021;28;850;-75
2022/11/27 01:22:29;;;;;;;;;;;;;;;20.56;26.46;98883.38;5044570;28;962;-75
2022/11/27 01:24:54;;;;;;;;;;;;;;;20.98;25.71;98885.00;5019410;28;1027;-75
2022/11/27 01:27:20;;;;;;;;;;;;;;;21.02;25.62;98882.13;5019649;28;1033;-75
2022/11/27 01:29:45;;;;;;;;;;;;;;;21.26;25.61;98878.22;5020169;28;1043;-75
2022/11/27 01:32:11;;;;;;;;;;;;;;;20.82;25.86;98876.25;5019926;28;975;-75
2022/11/27 01:34:36;;;;;;;;;;;;;;;20.52;26.31;98882.59;5019842;28;1981;-75
2022/11/27 01:37:01;;;;;;;;;;;;;;;20.58;26.43;98878.13;5019937;28;1468;-75
2022/11/27 01:39:27;;;;;;;;;;;;;;;20.92;25.72;98885.88;5020012;28;977;-75
2022/11/27 01:41:52;;;;;;;;;;;;;;;21.13;25.52;98885.66;5019596;28;948;-75
2022/11/27 01:44:24;;;;;;;;;;;;;;;21.08;25.80;98888.94;5003210;28;1033;-75
2022/11/27 01:46:53;;;;;;;;;;;;;;;20.59;26.18;98874.06;5019661;28;1070;-75
2022/11/27 01:49:24;;;;;;;;;;;;;;;20.73;26.17;98868.28;5003413;28;1081;-75
2022/11/27 01:51:53;;;;;;;;;;;;;;;20.45;26.39;98872.13;5019443;28;1048;-75
2022/11/27 01:54:19;;;;;;;;;;;;;;;21.17;25.67;98880.75;5019555;28;1975;-75
2022/11/27 01:56:45;;;;;;;;;;;;;;;20.93;25.79;98881.81;5038086;28;947;-75
2022/11/27 01:59:10;;;;;;;;;;;;;;;21.07;25.61;98876.00;5043663;28;920;-75
2022/11/27 02:01:36;;;;;;;;;;;;;;;20.65;25.95;98872.38;5043628;28;944;-75
2022/11/27 02:04:01;;;;;;;;;;;;;;;20.43;26.90;98883.03;5061841;28;951;-74
2022/11/27 02:06:27;;;;;;;;;;;;;;;20.38;26.60;98880.66;5043986;28;898;-75
2022/11/27 02:08:52;;;;;;;;;;;;;;;20.90;25.91;98872.16;5027393;28;1005;-75
2022/11/27 02:11:25;;;;;;;;;;;;;;;20.96;25.72;98880.97;5058158;28;1003;-75
2022/11/27 02:13:59;;;;;;;;;;;;;;;20.94;25.76;98878.59;5023607;28;1906;-74
2022/11/27 02:16:24;;;;;;;;;;;;;;;20.81;26.31;98880.31;5040816;28;969;-75
2022/11/27 02:19:03;;;;;;;;;;;;;;;20.40;26.77;98889.53;5058481;28;893;-75
2022/11/27 02:21:44;;;;;;;;;;;;;;;20.67;26.69;98892.56;5040641;28;961;-75
2022/11/27 02:24:39;;;;;;;;;;;;;;;21.05;25.69;98890.59;5040357;28;946;-75
2022/11/27 02:27:11;;;;;;;;;;;;;;;20.86;26.12;98893.22;4977185;28;1101;-75
2022/11/27 02:29:36;;;;;;;;;;;;;;;20.72;26.11;98899.78;4961072;28;983;-75
2022/11/27 02:32:07;;;;;;;;;;;;;;;20.49;26.59;98897.56;4961086;28;1067;-74
2022/11/27 02:34:35;;;;;;;;;;;;;;;20.54;26.58;98905.59;4960974;28;1902;-74
2022/11/27 02:37:13;;;;;;;;;;;;;;;21.07;25.66;98899.44;4919291;29;1209;-75
2022/11/27 02:39:58;;;;;;;;;;;;;;;20.94;26.13;98900.41;4919171;29;1076;-75
2022/11/27 02:42:24;;;;;;;;;;;;;;;21.11;25.73;98893.75;4919284;29;1035;-75
2022/11/27 02:44:51;;;;;;;;;;;;;;;20.70;26.28;98891.72;4919145;29;907;-75
2022/11/27 02:47:17;;;;;;;;;;;;;;;20.51;26.71;98889.47;4919499;29;917;-75
2022/11/27 02:49:42;;;;;;;;;;;;;;;20.51;26.68;98897.94;4903284;29;1083;-75
2022/11/27 02:52:08;;;;;;;;;;;;;;;21.11;25.79;98899.44;4919489;29;951;-75
2022/11/27 02:54:34;;;;;;;;;;;;;;;21.12;25.71;98901.03;4919082;29;1910;-75
2022/11/27 02:56:59;;;;;;;;;;;;;;;21.00;25.88;98899.53;4919506;29;935;-75
2022/11/27 02:59:25;;;;;;;;;;;;;;;20.64;26.55;98899.06;4918856;29;996;-75
2022/11/27 03:01:52;;;;;;;;;;;;;;;20.73;26.38;98901.41;4918834;29;1110;-75
2022/11/27 03:04:18;;;;;;;;;;;;;;;20.25;27.04;98894.47;4967232;28;988;-75
2022/11/27 03:06:46;;;;;;;;;;;;;;;21.15;26.05;98900.19;4960205;28;987;-75
2022/11/27 03:09:22;;;;;;;;;;;;;;;20.94;26.05;98900.41;5003119;28;1078;-75
2022/11/27 03:11:48;;;;;;;;;;;;;;;20.95;26.22;98894.34;5019627;28;944;-75
2022/11/27 03:14:13;;;;;;;;;;;;;;;20.48;26.82;98893.94;4975785;28;1966;-75
2022/11/27 03:16:40;;;;;;;;;;;;;;;20.48;26.95;98887.47;4975963;28;923;-75
2022/11/27 03:19:22;;;;;;;;;;;;;;;20.46;27.18;98885.06;4959991;28;983;-75
2022/11/27 03:21:49;;;;;;;;;;;;;;;20.72;26.33;98889.28;4959599;28;953;-75
2022/11/27 03:24:15;;;;;;;;;;;;;;;20.98;26.26;98889.84;4975673;28;1077;-75
2022/11/27 03:26:40;;;;;;;;;;;;;;;20.94;26.44;98889.09;4975702;28;1169;-75
2022/11/27 03:29:07;;;;;;;;;;;;;;;20.69;26.41;98880.84;4975923;28;968;-74
2022/11/27 03:31:32;;;;;;;;;;;;;;;20.36;26.80;98870.97;4976120;28;1133;-75
2022/11/27 03:33:58;;;;;;;;;;;;;;;20.93;26.26;98870.50;4975844;28;1988;-75
2022/11/27 03:36:23;;;;;;;;;;;;;;;21.20;25.64;98868.59;4986812;28;1063;-75
2022/11/27 03:38:49;;;;;;;;;;;;;;;21.12;25.75;98867.06;4979217;28;1034;-75
2022/11/27 03:41:20;;;;;;;;;;;;;;;21.06;25.88;98868.75;4995038;28;1088;-75
2022/11/27 03:44:09;;;;;;;;;;;;;;;20.56;26.36;98869.22;4995092;28;977;-75
2022/11/27 03:46:39;;;;;;;;;;;;;;;20.52;26.54;98869.28;4956183;29;1004;-75
2022/11/27 03:49:08;;;;;;;;;;;;;;;20.72;26.71;98861.00;4940103;29;1072;-75
2022/11/27 03:51:37;;;;;;;;;;;;;;;20.69;26.54;98866.69;4940336;29;1034;-75
2022/11/27 03:54:04;;;;;;;;;;;;;;;20.92;26.10;98869.69;4939931;29;1985;-74
2022/11/27 03:56:50;;;;;;;;;;;;;;;20.72;26.24;98866.66;4956284;29;981;-75
2022/11/27 03:59:19;;;;;;;;;;;;;;;20.53;26.58;98853.13;4940171;29;997;-74
2022/11/27 04:01:44;;;;;;;;;;;;;;;20.29;27.05;98861.34;4940317;29;1000;-75
2022/11/27 04:04:10;;;;;;;;;;;;;;;21.03;25.96;98856.22;4955814;29;1132;-75
2022/11/27 04:06:35;;;;;;;;;;;;;;;21.21;25.81;98861.72;4955685;29;1074;-75
2022/11/27 04:09:00;;;;;;;;;;;;;;;20.69;26.32;98856.19;4956049;29;967;-75
2022/11/27 04:11:26;;;;;;;;;;;;;;;20.93;26.06;98862.81;4955865;29;977;-75
2022/11/27 04:13:51;;;;;;;;;;;;;;;20.74;26.32;98864.22;4955874;29;1902;-75
2022/11/27 04:16:17;;;;;;;;;;;;;;;21.21;25.75;98875.88;4955768;29;1066;-75
2022/11/27 04:18:43;;;;;;;;;;;;;;;20.92;26.26;98880.22;4955487;29;903;-75
2022/11/27 04:21:08;;;;;;;;;;;;;;;20.52;26.67;98874.94;4955937;29;993;-75
2022/11/27 04:23:34;;;;;;;;;;;;;;;20.35;27.22;98870.19;4995475;28;1018;-75
2022/11/27 04:25:59;;;;;;;;;;;;;;;20.56;26.60;98872.06;5036515;28;884;-76
2022/11/27 04:28:25;;;;;;;;;;;;;;;20.63;26.82;98877.66;5038676;28;1115;-76
2022/11/27 04:30:50;;;;;;;;;;;;;;;21.00;26.11;98876.09;5046067;28;1226;-76
2022/11/27 04:33:16;;;;;;;;;;;;;;;20.91;26.35;98878.59;5026277;28;1902;-76
2022/11/27 04:35:42;;;;;;;;;;;;;;;20.76;26.36;98867.44;5045674;28;1189;-76
2022/11/27 04:38:07;;;;;;;;;;;;;;;20.33;27.19;98871.81;5039984;28;1406;-76
2022/11/27 04:40:32;;;;;;;;;;;;;;;20.81;26.29;98881.13;5044263;28;1345;-76
2022/11/27 04:42:58;;;;;;;;;;;;;;;20.63;26.77;98872.00;5043376;28;1264;-76
2022/11/27 04:45:23;;;;;;;;;;;;;;;21.00;26.01;98882.56;5035735;28;1063;-76
2022/11/27 04:47:49;;;;;;;;;;;;;;;20.95;26.19;98879.38;5035640;28;957;-76
2022/11/27 04:50:14;;;;;;;;;;;;;;;21.02;26.17;98891.41;5035850;28;955;-76
2022/11/27 04:52:40;;;;;;;;;;;;;;;20.74;26.58;98886.84;5035720;28;1972;-76
2022/11/27 04:55:05;;;;;;;;;;;;;;;20.61;26.25;98888.56;5035503;28;1122;-75
2022/11/27 04:57:31;;;;;;;;;;;;;;;20.52;26.78;98880.59;5035530;28;916;-76
2022/11/27 04:59:56;;;;;;;;;;;;;;;20.97;25.92;98885.41;5035706;28;947;-76
2022/11/27 05:02:22;;;;;;;;;;;;;;;20.90;26.27;98882.66;5035527;28;1116;-77
2022/11/27 05:04:47;;;;;;;;;;;;;;;21.16;25.65;98882.00;5035228;28;1031;-77
2022/11/27 05:07:13;;;;;;;;;;;;;;;20.59;26.38;98885.38;5034271;28;794;-77
2022/11/27 05:09:38;;;;;;;;;;;;;;;20.53;26.68;98887.84;5035645;28;751;-77
2022/11/27 05:12:04;;;;;;;;;;;;;;;20.67;26.66;98886.91;5035667;28;896;-77
2022/11/27 05:14:30;;;;;;;;;;;;;;;21.05;25.67;98884.94;5035195;28;1985;-77
2022/11/27 05:16:56;;;;;;;;;;;;;;;20.98;26.17;98878.53;5035167;28;978;-77
2022/11/27 05:19:22;;;;;;;;;;;;;;;21.19;25.48;98880.31;5033931;28;880;-77
2022/11/27 05:21:48;;;;;;;;;;;;;;;20.59;26.40;98878.91;5034282;28;1039;-76
2022/11/27 05:24:13;;;;;;;;;;;;;;;20.86;26.19;98884.72;5017520;28;1235;-77
2022/11/27 05:26:39;;;;;;;;;;;;;;;20.55;26.37;98884.59;5016820;28;974;-77
2022/11/27 05:29:04;;;;;;;;;;;;;;;21.04;25.76;98883.34;5034262;28;861;-75
2022/11/27 05:31:30;;;;;;;;;;;;;;;20.90;26.37;98882.66;5035377;28;900;-75
2022/11/27 05:33:55;;;;;;;;;;;;;;;20.87;26.01;98894.81;5034779;28;1918;-77
2022/11/27 05:36:21;;;;;;;;;;;;;;;20.69;26.12;98890.13;5035533;28;990;-77
2022/11/27 05:38:46;;;;;;;;;;;;;;;20.66;26.53;98890.16;5035284;28;1141;-76
2022/11/27 05:41:11;;;;;;;;;;;;;;;20.36;26.40;98837.84;5035112;28;1174;-76
2022/11/27 05:43:37;;;;;;;;;;;;;;;20.75;26.13;98902.59;5035416;28;1058;-77
2022/11/27 05:46:05;;;;;;;;;;;;;;;20.92;26.01;98900.00;5037252;28;858;-76
2022/11/27 05:48:31;;;;;;;;;;;;;;;20.73;26.04;98896.56;5039021;28;967;-76
2022/11/27 05:50:57;;;;;;;;;;;;;;;20.57;26.57;98887.78;5037564;28;954;-76
2022/11/27 05:53:22;;;;;;;;;;;;;;;20.21;26.90;98899.38;5038626;28;1965;-76
2022/11/27 05:55:47;;;;;;;;;;;;;;;20.84;25.95;98890.00;5039311;28;958;-76
2022/11/27 05:58:13;;;;;;;;;;;;;;;20.95;25.86;98891.50;5038915;28;904;-76
2022/11/27 06:00:38;;;;;;;;;;;;;;;20.76;26.05;98890.06;5038737;28;971;-76
2022/11/27 06:03:04;;;;;;;;;;;;;;;20.97;25.77;98893.91;5038829;28;986;-76
2022/11/27 06:05:29;;;;;;;;;;;;;;;20.55;26.37;98890.25;5039296;28;908;-76
2022/11/27 06:07:55;;;;;;;;;;;;;;;20.38;26.80;98891.97;5036557;28;945;-76
2022/11/27 06:10:20;;;;;;;;;;;;;;;20.89;25.93;98887.53;5038646;28;933;-76
2022/11/27 06:12:46;;;;;;;;;;;;;;;20.93;25.82;98893.94;5038148;28;1973;-76
2022/11/27 06:15:11;;;;;;;;;;;;;;;20.88;26.40;98896.41;5038231;28;923;-76
2022/11/27 06:17:36;;;;;;;;;;;;;;;21.08;25.77;98897.41;5020573;28;941;-76
2022/11/27 06:20:02;;;;;;;;;;;;;;;20.64;26.14;98893.41;5038198;28;991;-76
2022/11/27 06:22:27;;;;;;;;;;;;;;;20.53;26.59;98898.34;5038605;28;1137;-76
2022/11/27 06:24:53;;;;;;;;;;;;;;;20.57;26.30;98899.09;5038843;28;879;-77
2022/11/27 06:27:18;;;;;;;;;;;;;;;20.84;25.89;98912.63;5038803;28;887;-77
2022/11/27 06:29:44;;;;;;;;;;;;;;;21.10;25.80;98903.47;5038150;28;902;-76
2022/11/27 06:32:09;;;;;;;;;;;;;;;21.12;25.54;98895.38;5038650;28;890;-77
2022/11/27 06:34:35;;;;;;;;;;;;;;;20.62;26.55;98901.47;5037800;28;1913;-77
2022/11/27 06:37:00;;;;;;;;;;;;;;;20.41;26.83;98890.31;5038130;28;1037;-76
2022/11/27 06:39:26;;;;;;;;;;;;;;;20.61;26.48;98888.56;5038424;28;966;-77
2022/11/27 06:41:51;;;;;;;;;;;;;;;20.89;25.94;98895.22;5038092;28;886;-75
2022/11/27 06:44:16;;;;;;;;;;;;;;;20.96;25.93;98898.75;5038083;28;1079;-76
2022/11/27 06:46:42;;;;;;;;;;;;;;;20.84;26.29;98896.47;5037568;28;955;-75
2022/11/27 06:49:07;;;;;;;;;;;;;;;20.35;26.77;98900.47;5038108;28;892;-75
2022/11/27 06:51:33;;;;;;;;;;;;;;;20.70;26.44;98914.34;5038129;28;1083;-75
2022/11/27 06:53:59;;;;;;;;;;;;;;;20.88;26.12;98902.06;5037752;28;1935;-76
2022/11/27 06:56:24;;;;;;;;;;;;;;;20.84;26.44;98926.78;5037187;28;922;-76
2022/11/27 06:58:50;;;;;;;;;;;;;;;21.17;25.81;98920.38;5037816;28;922;-76
2022/11/27 07:01:16;;;;;;;;;;;;;;;20.81;26.37;98926.38;5034972;28;959;-77
2022/11/27 07:03:41;;;;;;;;;;;;;;;20.70;26.31;98920.00;5035259;28;894;-77
2022/11/27 07:06:07;;;;;;;;;;;;;;;20.46;26.71;98909.66;5034997;28;1047;-76
2022/11/27 07:08:33;;;;;;;;;;;;;;;20.93;26.10;98915.75;5035302;28;1027;-77
2022/11/27 07:11:05;;;;;;;;;;;;;;;20.94;26.44;98914.56;5035438;28;993;-77
2022/11/27 07:13:30;;;;;;;;;;;;;;;20.98;25.85;98872.88;5035198;28;1906;-77
2022/11/27 07:16:00;;;;;;;;;;;;;;;20.89;26.25;98912.19;5018982;28;953;-76
2022/11/27 07:18:25;;;;;;;;;;;;;;;20.72;26.45;98914.72;5018554;28;1033;-76
2022/11/27 07:20:51;;;;;;;;;;;;;;;20.86;26.32;98915.84;5034766;28;938;-77
2022/11/27 07:23:16;;;;;;;;;;;;;;;20.87;26.47;98923.91;5034832;28;1234;-76
2022/11/27 07:25:42;;;;;;;;;;;;;;;20.84;26.42;98923.94;5034941;28;998;-76
2022/11/27 07:28:07;;;;;;;;;;;;;;;20.92;26.17;98925.47;5034991;28;1134;-76
2022/11/27 07:30:33;;;;;;;;;;;;;;;20.66;26.56;98922.06;5034642;28;975;-77
2022/11/27 07:32:58;;;;;;;;;;;;;;;20.57;26.94;98916.06;5036383;28;1902;-76
2022/11/27 07:35:24;;;;;;;;;;;;;;;20.97;26.37;98925.03;5037183;28;1001;-77
2022/11/27 07:37:49;;;;;;;;;;;;;;;20.89;26.38;98920.66;5036934;28;926;-77
2022/11/27 07:40:17;;;;;;;;;;;;;;;20.99;26.22;98922.59;5037166;28;908;-76
2022/11/27 07:42:42;;;;;;;;;;;;;;;20.73;26.71;98924.84;5037239;28;938;-76
2022/11/27 07:45:08;;;;;;;;;;;;;;;20.57;27.04;98916.06;5036840;28;939;-76
2022/11/27 07:47:34;;;;;;;;;;;;;;;20.22;26.76;98852.94;5036619;28;875;-77
2022/11/27 07:49:59;;;;;;;;;;;;;;;20.71;26.83;98927.25;5036677;28;934;-76
2022/11/27 07:52:25;;;;;;;;;;;;;;;21.06;26.34;98925.34;5036571;28;969;-77
2022/11/27 07:54:50;;;;;;;;;;;;;;;21.16;25.85;98935.75;5036752;28;1981;-76
2022/11/27 07:57:16;;;;;;;;;;;;;;;20.80;26.37;98930.44;5036657;28;1053;-76
2022/11/27 07:59:41;;;;;;;;;;;;;;;20.68;26.76;98928.13;5036256;28;960;-76
2022/11/27 08:02:08;;;;;;;;;;;;;;;20.75;26.77;98933.72;5036460;28;847;-76
2022/11/27 08:04:34;;;;;;;;;;;;;;;21.03;26.04;98948.81;5035193;28;935;-76
2022/11/27 08:06:59;;;;;;;;;;;;;;;20.92;26.28;98946.06;5036688;28;1006;-76
2022/11/27 08:09:24;;;;;;;;;;;;;;;20.88;26.34;98938.84;5035613;28;942;-76
2022/11/27 08:11:50;;;;;;;;;;;;;;;20.55;26.72;98935.47;5036249;28;895;-76
2022/11/27 08:14:18;;;;;;;;;;;;;;;20.49;26.92;98931.50;5036211;28;1968;-76
2022/11/27 08:16:43;;;;;;;;;;;;;;;20.33;27.31;98939.66;5036549;28;934;-77
2022/11/27 08:19:09;;;;;;;;;;;;;;;20.81;26.50;98932.03;5035754;28;819;-76
2022/11/27 08:21:34;;;;;;;;;;;;;;;20.88;26.69;98928.34;5035935;28;814;-77
2022/11/27 08:24:00;;;;;;;;;;;;;;;20.99;26.35;98928.25;5036122;28;851;-77
2022/11/27 08:26:28;;;;;;;;;;;;;;;20.66;26.67;98924.88;5036039;28;756;-77
2022/11/27 08:28:54;;;;;;;;;;;;;;;20.92;26.40;98936.78;5035732;28;901;-76
2022/11/27 08:31:19;;;;;;;;;;;;;;;20.57;26.86;98933.03;5035975;28;920;-77
2022/11/27 08:33:45;;;;;;;;;;;;;;;20.94;26.33;98931.53;5035948;28;1980;-76
2022/11/27 08:36:10;;;;;;;;;;;;;;;20.84;26.33;98940.91;5036241;28;1158;-76
2022/11/27 08:38:36;;;;;;;;;;;;;;;20.89;26.36;98937.66;5033790;28;1046;-76
2022/11/27 08:41:02;;;;;;;;;;;;;;;20.58;26.50;98945.97;5036209;28;1031;-76
2022/11/27 08:43:27;;;;;;;;;;;;;;;20.61;26.83;98938.66;5035887;28;864;-76
2022/11/27 08:45:53;;;;;;;;;;;;;;;20.43;27.11;98944.44;5035558;28;944;-76
2022/11/27 08:48:18;;;;;;;;;;;;;;;20.93;26.30;98946.88;5035536;28;1021;-75
2022/11/27 08:50:44;;;;;;;;;;;;;;;20.97;26.35;98939.16;5035729;28;903;-75
2022/11/27 08:53:09;;;;;;;;;;;;;;;21.35;25.90;98927.91;5035909;28;1975;-76
2022/11/27 08:55:35;;;;;;;;;;;;;;;20.67;26.54;98926.50;5035775;28;856;-75
2022/11/27 08:58:01;;;;;;;;;;;;;;;20.49;26.81;98931.50;5035668;28;946;-76
2022/11/27 09:00:26;;;;;;;;;;;;;;;20.43;27.08;98933.13;5036055;28;1023;-76
2022/11/27 09:02:52;;;;;;;;;;;;;;;20.63;26.95;98928.56;5035954;28;856;-75
2022/11/27 09:05:17;;;;;;;;;;;;;;;20.84;26.42;98924.75;5034312;28;982;-76
2022/11/27 09:07:43;;;;;;;;;;;;;;;21.08;26.04;98928.56;5017713;28;993;-76
2022/11/27 09:10:08;;;;;;;;;;;;;;;20.50;26.81;98921.78;5035137;28;939;-76
2022/11/27 09:12:34;;;;;;;;;;;;;;;20.51;26.97;98912.09;5017374;28;1241;-76
2022/11/27 09:14:59;;;;;;;;;;;;;;;20.64;26.72;98921.69;5035318;28;1910;-76
2022/11/27 09:17:24;;;;;;;;;;;;;;;20.92;26.39;98914.16;5035704;28;806;-76
2022/11/27 09:19:50;;;;;;;;;;;;;;;20.88;26.36;98913.38;5035847;28;925;-76
2022/11/27 09:22:15;;;;;;;;;;;;;;;20.91;26.28;98913.34;5039413;28;1011;-76
2022/11/27 09:24:41;;;;;;;;;;;;;;;20.49;26.90;98908.88;5021899;28;1087;-75
2022/11/27 09:27:06;;;;;;;;;;;;;;;20.65;26.73;98916.81;5038149;28;970;-76
2022/11/27 09:29:35;;;;;;;;;;;;;;;20.81;26.40;98909.41;5037395;28;995;-76
2022/11/27 09:32:00;;;;;;;;;;;;;;;20.81;26.57;98917.88;5039260;28;884;-76
2022/11/27 09:34:26;;;;;;;;;;;;;;;20.91;26.34;98895.59;5039072;28;1910;-76
2022/11/27 09:36:51;;;;;;;;;;;;;;;20.77;26.39;98902.16;5039280;28;1028;-76
2022/11/27 09:39:18;;;;;;;;;;;;;;;20.59;26.79;98902.34;5005257;28;1733;-76
2022/11/27 09:42:10;;;;;;;;;;;;;;;20.73;26.80;98896.56;5038780;28;1035;-76
2022/11/27 09:44:41;;;;;;;;;;;;;;;20.77;26.54;98891.66;4997338;28;1191;-76
2022/11/27 09:47:12;;;;;;;;;;;;;;;20.68;26.61;98894.19;4980986;28;1122;-75
2022/11/27 09:49:42;;;;;;;;;;;;;;;21.02;26.54;98896.28;4997155;28;1026;-76
2022/11/27 09:52:13;;;;;;;;;;;;;;;20.56;27.09;98889.00;4964487;28;1203;-75
2022/11/27 09:54:48;;;;;;;;;;;;;;;20.48;27.21;98895.97;4964849;28;1918;-75
2022/11/27 09:57:15;;;;;;;;;;;;;;;20.43;27.12;98883.03;4980660;28;1042;-77
2022/11/27 09:59:42;;;;;;;;;;;;;;;20.89;26.68;98886.72;4964868;28;956;-76
2022/11/27 10:02:17;;;;;;;;;;;;;;;20.95;26.39;98887.88;4964572;28;1143;-76
2022/11/27 10:04:43;;;;;;;;;;;;;;;21.05;26.17;98879.28;4964747;28;962;-76
2022/11/27 10:07:11;;;;;;;;;;;;;;;20.80;26.79;98885.16;4980710;28;923;-76
2022/11/27 10:09:37;;;;;;;;;;;;;;;20.67;26.86;98871.97;4997008;28;951;-76
2022/11/27 10:12:08;;;;;;;;;;;;;;;20.86;26.47;98870.56;4964419;28;1181;-76
2022/11/27 10:14:49;;;;;;;;;;;;;;;21.06;26.36;98880.06;4980663;28;2037;-76
2022/11/27 10:17:33;;;;;;;;;;;;;;;21.11;26.07;98879.63;5002329;28;997;-76
2022/11/27 10:20:07;;;;;;;;;;;;;;;20.78;26.56;98881.97;5036070;28;977;-77
2022/11/27 10:23:11;;;;;;;;;;;;;;;20.64;26.67;98869.97;5077653;28;911;-76
2022/11/27 10:25:41;;;;;;;;;;;;;;;20.58;26.86;98872.47;5035902;28;967;-76
2022/11/27 10:28:12;;;;;;;;;;;;;;;20.89;26.76;98869.75;5003218;28;871;-76
2022/11/27 10:30:39;;;;;;;;;;;;;;;20.87;26.49;98861.66;5003046;28;976;-76
2022/11/27 10:33:12;;;;;;;;;;;;;;;21.01;26.34;98855.88;5018122;28;1902;-77
2022/11/27 10:35:37;;;;;;;;;;;;;;;20.91;26.28;98856.78;5019031;28;1077;-76
2022/11/27 10:38:05;;;;;;;;;;;;;;;20.74;26.53;98852.91;5019041;28;1079;-76
2022/11/27 10:40:51;;;;;;;;;;;;;;;20.72;26.59;98852.50;5019381;28;1002;-75
2022/11/27 10:43:19;;;;;;;;;;;;;;;21.02;26.34;98842.53;5035202;28;1102;-76
2022/11/27 10:46:02;;;;;;;;;;;;;;;21.16;26.35;98850.84;5035757;28;959;-77
2022/11/27 10:48:28;;;;;;;;;;;;;;;20.78;26.57;98839.53;4960726;28;1024;-76
2022/11/27 10:50:54;;;;;;;;;;;;;;;20.60;26.99;98847.38;4976983;28;1068;-76
2022/11/27 10:53:31;;;;;;;;;;;;;;;20.73;26.70;98842.81;4977006;28;1914;-76
2022/11/27 10:55:56;;;;;;;;;;;;;;;21.00;26.35;98853.47;4943099;29;1103;-76
2022/11/27 10:58:23;;;;;;;;;;;;;;;20.81;26.58;98847.19;4938044;29;1034;-76
2022/11/27 11:00:58;;;;;;;;;;;;;;;20.89;26.43;98847.13;4937655;29;909;-75
2022/11/27 11:03:24;;;;;;;;;;;;;;;20.81;26.58;98846.38;4938036;29;1068;-76
2022/11/27 11:05:56;;;;;;;;;;;;;;;20.65;26.70;98838.44;4938072;29;889;-76
2022/11/27 11:08:23;;;;;;;;;;;;;;;20.61;26.91;98842.53;4937870;29;1174;-76
2022/11/27 11:10:50;;;;;;;;;;;;;;;20.79;26.72;98843.97;4937713;29;1018;-76
2022/11/27 11:13:15;;;;;;;;;;;;;;;21.14;26.13;98841.16;4937791;29;1910;-76
2022/11/27 11:15:48;;;;;;;;;;;;;;;20.63;26.63;98828.78;4937705;29;957;-76
2022/11/27 11:18:17;;;;;;;;;;;;;;;20.55;27.23;98831.66;4937570;29;999;-75
2022/11/27 11:20:45;;;;;;;;;;;;;;;20.95;26.52;98836.94;4995309;28;1112;-76
2022/11/27 11:23:17;;;;;;;;;;;;;;;20.97;26.33;98826.00;4995633;28;1067;-76
2022/11/27 11:25:47;;;;;;;;;;;;;;;21.26;25.74;98827.28;4996075;28;1036;-76
2022/11/27 11:28:14;;;;;;;;;;;;;;;20.68;26.54;98815.00;5019571;28;958;-75
2022/11/27 11:30:40;;;;;;;;;;;;;;;20.61;26.91;98820.72;5037060;28;940;-76
2022/11/27 11:33:05;;;;;;;;;;;;;;;20.66;26.73;98820.25;5019342;28;1981;-75
2022/11/27 11:35:31;;;;;;;;;;;;;;;21.11;26.14;98820.19;5037230;28;1046;-76
2022/11/27 11:37:57;;;;;;;;;;;;;;;20.96;26.30;98821.56;5019763;28;907;-76
2022/11/27 11:40:23;;;;;;;;;;;;;;;21.01;26.15;98826.78;5019205;28;868;-76
2022/11/27 11:42:58;;;;;;;;;;;;;;;21.21;25.98;98827.75;5036626;28;865;-76
2022/11/27 11:45:24;;;;;;;;;;;;;;;20.80;26.76;98822.94;5019633;28;941;-76
2022/11/27 11:47:50;;;;;;;;;;;;;;;20.65;26.90;98820.69;5019397;28;1001;-76
2022/11/27 11:50:31;;;;;;;;;;;;;;;20.60;27.04;98821.94;4985848;28;1090;-76
2022/11/27 11:52:56;;;;;;;;;;;;;;;21.04;26.21;98820.28;5036168;28;1906;-75
2022/11/27 11:55:25;;;;;;;;;;;;;;;21.21;26.00;98812.81;5036402;28;902;-76
2022/11/27 11:58:20;;;;;;;;;;;;;;;20.70;26.67;98809.72;5019261;28;1250;-76
2022/11/27 12:00:46;;;;;;;;;;;;;;;20.88;26.74;98812.38;4975137;28;1059;-76
2022/11/27 12:03:12;;;;;;;;;;;;;;;20.74;26.71;98807.66;4975478;28;988;-76
2022/11/27 12:05:40;;;;;;;;;;;;;;;20.84;26.84;98808.78;4975177;28;1049;-76
2022/11/27 12:08:05;;;;;;;;;;;;;;;20.64;27.17;98808.56;4991402;28;1052;-77
2022/11/27 12:10:38;;;;;;;;;;;;;;;21.03;26.57;98813.00;4975235;28;1010;-76
2022/11/27 12:13:06;;;;;;;;;;;;;;;20.62;26.99;98805.34;4991587;28;1893;-76
2022/11/27 12:15:34;;;;;;;;;;;;;;;20.61;26.84;98806.56;4991290;28;1032;-76
2022/11/27 12:18:00;;;;;;;;;;;;;;;20.53;26.87;98808.69;4991163;28;984;-76
2022/11/27 12:20:29;;;;;;;;;;;;;;;20.74;26.77;98810.50;4991045;28;1064;-76
2022/11/27 12:23:13;;;;;;;;;;;;;;;20.71;26.78;98800.00;4991464;28;1074;-76
2022/11/27 12:25:41;;;;;;;;;;;;;;;20.93;26.50;98796.94;4975242;28;1004;-75
2022/11/27 12:28:06;;;;;;;;;;;;;;;20.72;26.73;98793.13;4975131;28;1009;-76
2022/11/27 12:30:38;;;;;;;;;;;;;;;20.56;26.91;98807.03;4974960;28;1009;-76
2022/11/27 12:33:21;;;;;;;;;;;;;;;20.88;26.76;98809.53;4975014;28;1906;-76
2022/11/27 12:35:58;;;;;;;;;;;;;;;21.06;26.43;98806.50;4974887;28;1190;-76
2022/11/27 12:38:44;;;;;;;;;;;;;;;20.91;26.51;98805.06;5034570;28;965;-75
2022/11/27 12:41:19;;;;;;;;;;;;;;;20.45;27.11;98798.63;5035335;28;1082;-76
2022/11/27 12:43:45;;;;;;;;;;;;;;;20.39;27.33;98796.66;5036194;28;938;-76
2022/11/27 12:46:13;;;;;;;;;;;;;;;20.70;26.76;98800.44;5018140;28;953;-76
2022/11/27 12:48:46;;;;;;;;;;;;;;;20.99;26.30;98798.09;5018238;28;1013;-75
2022/11/27 12:51:12;;;;;;;;;;;;;;;20.94;26.71;98804.22;5018295;28;943;-75
2022/11/27 12:53:39;;;;;;;;;;;;;;;20.88;26.46;98805.88;4974425;28;1915;-75
2022/11/27 12:56:23;;;;;;;;;;;;;;;20.59;27.05;98794.88;4974016;28;984;-75
2022/11/27 12:58:50;;;;;;;;;;;;;;;20.75;26.72;98797.94;4974299;28;1070;-76
2022/11/27 13:01:20;;;;;;;;;;;;;;;20.53;27.06;98807.88;4971310;28;1008;-76
2022/11/27 13:03:48;;;;;;;;;;;;;;;20.84;26.56;98805.16;4974526;28;1047;-76
2022/11/27 13:06:15;;;;;;;;;;;;;;;20.92;26.61;98790.47;4974218;28;1160;-76